Time,TemperatureF,DewpointF,PressureIn,WindDirection,WindDirectionDegrees,WindSpeedMPH,WindSpeedGustMPH,Humidity,HourlyPrecipIn,Conditions,Clouds,dailyrainin,SoftwareType,DateUTC
2013-02-25 00:02:00,28.0,27.0,30.06,North,0,0.0,0.0,96,65.48,,,-99.99,,2013-02-25 06:02:00,
2013-02-25 00:11:00,28.0,27.0,30.06,North,0,0.0,0.0,96,65.48,,,-99.99,,2013-02-25 06:11:00,
2013-02-25 00:21:00,28.0,27.0,30.06,North,0,0.0,0.0,96,65.48,,,-99.99,,2013-02-25 06:21:00,
2013-02-25 00:31:00,28.0,27.0,30.05,North,0,0.0,0.0,96,65.48,,,-99.99,,2013-02-25 06:31:00,
2013-02-25 00:41:00,28.0,27.0,30.05,North,0,0.0,0.0,96,65.48,,,-99.99,,2013-02-25 06:41:00,
2013-02-25 00:52:00,28.0,27.0,30.06,North,0,0.0,0.0,96,65.48,,,-99.99,,2013-02-25 06:52:00,
2013-02-25 01:01:00,28.0,27.0,30.06,North,0,0.0,0.0,95,65.48,,,-99.99,,2013-02-25 07:01:00,
2013-02-25 01:11:00,27.0,26.0,30.05,North,0,0.0,0.0,96,65.48,,,-99.99,,2013-02-25 07:11:00,
2013-02-25 01:21:00,27.0,26.0,30.05,North,0,0.0,0.0,96,65.48,,,-99.99,,2013-02-25 07:21:00,
2013-02-25 01:31:00,28.0,27.0,30.06,North,0,0.0,0.0,96,65.48,,,-99.99,,2013-02-25 07:31:00,
2013-02-25 01:41:00,28.0,27.0,30.06,North,0,0.0,0.0,96,65.48,,,-99.99,,2013-02-25 07:41:00,
2013-02-25 01:52:00,27.0,26.0,30.05,North,0,0.0,0.0,96,65.48,,,-99.99,,2013-02-25 07:52:00,
2013-02-25 02:01:00,27.0,26.0,30.05,North,0,0.0,0.0,96,65.48,,,-99.99,,2013-02-25 08:01:00,
2013-02-25 02:11:00,27.0,26.0,30.05,North,0,0.0,0.0,96,65.48,,,-99.99,,2013-02-25 08:11:00,
2013-02-25 02:21:00,27.0,26.0,30.05,North,0,0.0,0.0,96,65.48,,,-99.99,,2013-02-25 08:21:00,
2013-02-25 02:31:00,27.0,26.0,30.05,North,0,0.0,0.0,96,65.48,,,-99.99,,2013-02-25 08:31:00,
2013-02-25 02:41:00,27.0,26.0,30.05,North,0,0.0,0.0,96,65.48,,,-99.99,,2013-02-25 08:41:00,
2013-02-25 02:52:00,27.0,26.0,30.05,North,0,0.0,0.0,96,65.48,,,-99.99,,2013-02-25 08:52:00,
2013-02-25 03:01:00,27.0,26.0,30.05,North,0,0.0,0.0,97,65.48,,,-99.99,,2013-02-25 09:01:00,
2013-02-25 03:12:00,27.0,26.0,30.05,North,0,0.0,0.0,97,65.48,,,-99.99,,2013-02-25 09:12:00,
2013-02-25 03:21:00,27.0,26.0,30.05,North,0,0.0,0.0,97,65.48,,,-99.99,,2013-02-25 09:21:00,
2013-02-25 03:31:00,27.0,26.0,30.05,North,0,0.0,0.0,96,65.48,,,-99.99,,2013-02-25 09:31:00,
2013-02-25 03:41:00,27.0,26.0,30.05,North,0,0.0,0.0,96,65.48,,,-99.99,,2013-02-25 09:41:00,
2013-02-25 03:52:00,27.0,26.0,30.06,North,0,0.0,0.0,96,65.48,,,-99.99,,2013-02-25 09:52:00,
2013-02-25 04:01:00,27.0,26.0,30.06,North,0,0.0,0.0,96,65.48,,,-99.99,,2013-02-25 10:01:00,
2013-02-25 04:11:00,27.0,26.0,30.06,North,0,0.0,0.0,96,65.48,,,-99.99,,2013-02-25 10:11:00,
2013-02-25 04:21:00,27.0,26.0,30.06,North,0,0.0,0.0,96,65.48,,,-99.99,,2013-02-25 10:21:00,
2013-02-25 04:32:00,26.0,25.0,30.06,North,0,0.0,0.0,96,65.48,,,-99.99,,2013-02-25 10:32:00,
2013-02-25 04:42:00,26.0,25.0,30.06,North,0,0.0,0.0,96,65.48,,,-99.99,,2013-02-25 10:42:00,
2013-02-25 04:52:00,26.0,25.0,30.06,North,0,0.0,0.0,97,65.48,,,-99.99,,2013-02-25 10:52:00,
2013-02-25 05:01:00,26.0,25.0,30.07,North,0,0.0,0.0,97,65.48,,,-99.99,,2013-02-25 11:01:00,
2013-02-25 05:11:00,26.0,25.0,30.07,North,0,0.0,0.0,97,65.48,,,-99.99,,2013-02-25 11:11:00,
2013-02-25 05:21:00,25.0,24.0,30.08,North,0,0.0,0.0,97,65.48,,,-99.99,,2013-02-25 11:21:00,
2013-02-25 05:32:00,25.0,24.0,30.07,North,0,0.0,0.0,97,65.48,,,-99.99,,2013-02-25 11:32:00,
2013-02-25 05:42:00,25.0,24.0,30.07,North,0,0.0,0.0,97,65.48,,,-99.99,,2013-02-25 11:42:00,
2013-02-25 05:52:00,25.0,24.0,30.07,North,0,0.0,0.0,97,65.48,,,-99.99,,2013-02-25 11:52:00,
2013-02-25 06:01:00,25.0,25.0,30.08,North,0,0.0,0.0,98,65.48,,,-99.99,,2013-02-25 12:01:00,
2013-02-25 06:11:00,25.0,25.0,30.08,North,0,0.0,0.0,98,65.48,,,-99.99,,2013-02-25 12:11:00,
2013-02-25 06:21:00,26.0,26.0,30.09,North,0,0.0,0.0,98,65.48,,,-99.99,,2013-02-25 12:21:00,
2013-02-25 06:32:00,25.0,25.0,30.09,North,0,0.0,0.0,98,65.48,,,-99.99,,2013-02-25 12:32:00,
2013-02-25 06:42:00,25.0,25.0,30.09,North,0,0.0,0.0,98,65.48,,,-99.99,,2013-02-25 12:42:00,
2013-02-25 06:55:00,25.0,25.0,30.09,North,0,0.0,0.0,98,65.48,,,-99.99,,2013-02-25 12:55:00,
2013-02-25 07:02:00,25.0,25.0,30.08,North,0,0.0,0.0,98,65.48,,,-99.99,,2013-02-25 13:02:00,
2013-02-25 07:12:00,25.0,25.0,30.08,North,0,0.0,0.0,98,65.48,,,-99.99,,2013-02-25 13:12:00,
2013-02-25 07:22:00,26.0,26.0,30.07,SSE,149,1.0,4.0,98,65.48,,,-99.99,,2013-02-25 13:22:00,
2013-02-25 07:32:00,27.0,26.0,30.08,SE,132,1.0,4.0,97,65.48,,,-99.99,,2013-02-25 13:32:00,
2013-02-25 07:42:00,27.0,26.0,30.08,SE,132,1.0,4.0,97,65.48,,,-99.99,,2013-02-25 13:42:00,
2013-02-25 07:52:00,28.0,27.0,30.07,ESE,120,2.0,8.0,96,65.48,,,-99.99,,2013-02-25 13:52:00,
2013-02-25 08:03:00,29.0,28.0,30.07,ESE,121,1.0,4.0,95,65.48,,,-99.99,,2013-02-25 14:03:00,
2013-02-25 08:17:00,29.0,28.0,30.07,ESE,121,1.0,4.0,95,65.48,,,-99.99,,2013-02-25 14:17:00,
2013-02-25 08:32:00,31.0,28.0,30.06,SE,136,3.0,9.0,89,65.48,,,-99.99,,2013-02-25 14:32:00,
2013-02-25 08:42:00,31.0,28.0,30.06,SE,136,3.0,9.0,89,65.48,,,-99.99,,2013-02-25 14:42:00,
2013-02-25 08:52:00,32.0,29.0,30.05,SE,138,2.0,6.0,88,65.48,,,-99.99,,2013-02-25 14:52:00,
2013-02-25 09:02:00,33.0,29.0,30.06,SSE,156,2.0,8.0,86,65.48,,,-99.99,,2013-02-25 15:02:00,
2013-02-25 09:11:00,33.0,29.0,30.06,SSE,156,2.0,8.0,86,65.48,,,-99.99,,2013-02-25 15:11:00,
2013-02-25 09:21:00,34.0,29.0,30.06,SSE,149,2.0,7.0,83,65.48,,,-99.99,,2013-02-25 15:21:00,
2013-02-25 09:32:00,36.0,30.0,30.06,SE,129,2.0,5.0,79,65.48,,,-99.99,,2013-02-25 15:32:00,
2013-02-25 09:41:00,36.0,30.0,30.06,SE,129,2.0,5.0,79,65.48,,,-99.99,,2013-02-25 15:41:00,
2013-02-25 09:52:00,37.0,30.0,30.05,SE,141,2.0,9.0,75,65.48,,,-99.99,,2013-02-25 15:52:00,
2013-02-25 10:01:00,38.0,31.0,30.05,South,170,1.0,7.0,76,65.48,,,-99.99,,2013-02-25 16:01:00,
2013-02-25 10:11:00,38.0,31.0,30.05,South,170,1.0,7.0,76,65.48,,,-99.99,,2013-02-25 16:11:00,
2013-02-25 10:21:00,39.0,31.0,30.04,SE,135,0.0,4.0,74,65.48,,,-99.99,,2013-02-25 16:21:00,
2013-02-25 10:31:00,40.0,31.0,30.03,SE,135,3.0,12.0,71,65.48,,,-99.99,,2013-02-25 16:31:00,
2013-02-25 10:42:00,40.0,31.0,30.03,SE,135,3.0,12.0,71,65.48,,,-99.99,,2013-02-25 16:42:00,
2013-02-25 10:52:00,40.0,31.0,30.03,SE,146,4.0,11.0,69,65.48,,,-99.99,,2013-02-25 16:52:00,
2013-02-25 11:01:00,40.0,31.0,30.03,SE,142,2.0,10.0,69,65.48,,,-99.99,,2013-02-25 17:01:00,
2013-02-25 11:11:00,40.0,31.0,30.03,SE,142,2.0,10.0,69,65.48,,,-99.99,,2013-02-25 17:11:00,
2013-02-25 11:21:00,41.0,31.0,30.03,SE,143,3.0,11.0,68,65.48,,,-99.99,,2013-02-25 17:21:00,
2013-02-25 11:31:00,42.0,31.0,30.03,SSE,155,3.0,11.0,65,65.48,,,-99.99,,2013-02-25 17:31:00,
2013-02-25 11:41:00,42.0,31.0,30.03,SSE,155,3.0,11.0,65,65.48,,,-99.99,,2013-02-25 17:41:00,
2013-02-25 11:52:00,43.0,31.0,30.02,SSE,150,2.0,9.0,62,65.48,,,-99.99,,2013-02-25 17:52:00,
2013-02-25 12:01:00,43.0,30.0,30.01,SE,146,3.0,10.0,61,65.48,,,-99.99,,2013-02-25 18:01:00,
2013-02-25 12:12:00,43.0,30.0,30.01,SE,146,3.0,10.0,61,65.48,,,-99.99,,2013-02-25 18:12:00,
2013-02-25 12:21:00,43.0,31.0,30.00,ESE,110,3.0,9.0,63,65.48,,,-99.99,,2013-02-25 18:21:00,
2013-02-25 12:32:00,43.0,30.0,30.00,SE,136,3.0,10.0,60,65.48,,,-99.99,,2013-02-25 18:32:00,
2013-02-25 12:41:00,43.0,30.0,30.00,SE,136,3.0,10.0,60,65.48,,,-99.99,,2013-02-25 18:41:00,
2013-02-25 12:52:00,44.0,31.0,29.99,East,89,3.0,11.0,61,65.48,,,-99.99,,2013-02-25 18:52:00,
2013-02-25 13:01:00,44.0,31.0,29.98,SE,125,4.0,12.0,60,65.48,,,-99.99,,2013-02-25 19:01:00,
2013-02-25 13:11:00,44.0,31.0,29.98,SE,125,4.0,12.0,60,65.48,,,-99.99,,2013-02-25 19:11:00,
2013-02-25 13:21:00,44.0,31.0,29.98,SSE,165,4.0,11.0,60,65.48,,,-99.99,,2013-02-25 19:21:00,
2013-02-25 13:31:00,44.0,31.0,29.97,SE,129,4.0,10.0,61,65.48,,,-99.99,,2013-02-25 19:31:00,
2013-02-25 13:41:00,44.0,31.0,29.97,SE,129,4.0,10.0,61,65.48,,,-99.99,,2013-02-25 19:41:00,
2013-02-25 13:52:00,44.0,32.0,29.97,ENE,68,5.0,12.0,62,65.48,,,-99.99,,2013-02-25 19:52:00,
2013-02-25 14:01:00,45.0,32.0,29.97,ESE,107,4.0,11.0,60,65.48,,,-99.99,,2013-02-25 20:01:00,
2013-02-25 14:11:00,45.0,32.0,29.97,ESE,107,4.0,11.0,60,65.48,,,-99.99,,2013-02-25 20:11:00,
2013-02-25 14:21:00,44.0,31.0,29.95,East,94,7.0,17.0,60,65.48,,,-99.99,,2013-02-25 20:21:00,
2013-02-25 14:31:00,45.0,33.0,29.96,ESE,103,4.0,11.0,62,65.48,,,-99.99,,2013-02-25 20:31:00,
2013-02-25 14:41:00,45.0,33.0,29.96,ESE,103,4.0,11.0,62,65.48,,,-99.99,,2013-02-25 20:41:00,
2013-02-25 14:52:00,45.0,32.0,29.95,South,177,4.0,10.0,61,65.48,,,-99.99,,2013-02-25 20:52:00,
2013-02-25 15:01:00,45.0,33.0,29.94,SE,138,6.0,15.0,63,65.48,,,-99.99,,2013-02-25 21:01:00,
2013-02-25 15:11:00,45.0,33.0,29.94,SE,138,6.0,15.0,63,65.48,,,-99.99,,2013-02-25 21:11:00,
2013-02-25 15:21:00,44.0,32.0,29.94,East,94,6.0,15.0,63,65.48,,,-99.99,,2013-02-25 21:21:00,
2013-02-25 15:32:00,44.0,32.0,29.93,East,101,8.0,17.0,63,65.48,,,-99.99,,2013-02-25 21:32:00,
2013-02-25 15:42:00,44.0,32.0,29.93,East,101,8.0,17.0,63,65.48,,,-99.99,,2013-02-25 21:42:00,
2013-02-25 15:51:00,43.0,32.0,29.94,ESE,107,6.0,14.0,65,65.48,,,-99.99,,2013-02-25 21:51:00,
2013-02-25 16:01:00,43.0,32.0,29.92,East,100,7.0,14.0,66,65.48,,,-99.99,,2013-02-25 22:01:00,
2013-02-25 16:11:00,43.0,32.0,29.92,East,100,7.0,14.0,66,65.48,,,-99.99,,2013-02-25 22:11:00,
2013-02-25 16:21:00,42.0,32.0,29.91,East,86,6.0,16.0,68,65.48,,,-99.99,,2013-02-25 22:21:00,
2013-02-25 16:32:00,42.0,33.0,29.91,East,84,7.0,15.0,71,65.48,,,-99.99,,2013-02-25 22:32:00,
2013-02-25 16:42:00,42.0,33.0,29.91,East,84,7.0,15.0,71,65.48,,,-99.99,,2013-02-25 22:42:00,
2013-02-25 16:52:00,41.0,33.0,29.91,SE,146,4.0,10.0,72,65.48,,,-99.99,,2013-02-25 22:52:00,
2013-02-25 17:01:00,41.0,33.0,29.90,ESE,110,6.0,14.0,72,65.48,,,-99.99,,2013-02-25 23:01:00,
2013-02-25 17:11:00,41.0,33.0,29.90,ESE,110,6.0,14.0,72,65.48,,,-99.99,,2013-02-25 23:11:00,
2013-02-25 17:22:00,40.0,32.0,29.89,ESE,117,4.0,11.0,74,65.48,,,-99.99,,2013-02-25 23:22:00,
2013-02-25 17:31:00,40.0,32.0,29.90,East,87,4.0,12.0,74,65.48,,,-99.99,,2013-02-25 23:31:00,
2013-02-25 17:41:00,40.0,32.0,29.90,East,87,4.0,12.0,74,65.48,,,-99.99,,2013-02-25 23:41:00,
2013-02-25 17:52:00,39.0,33.0,29.90,ESE,103,5.0,13.0,78,65.48,,,-99.99,,2013-02-25 23:52:00,
2013-02-25 18:01:00,39.0,33.0,29.90,East,96,6.0,12.0,78,65.48,,,-99.99,,2013-02-26 00:01:00,
2013-02-25 18:11:00,39.0,33.0,29.90,East,96,6.0,12.0,78,65.48,,,-99.99,,2013-02-26 00:11:00,
2013-02-25 18:21:00,38.0,32.0,29.90,East,93,8.0,17.0,79,65.48,,,-99.99,,2013-02-26 00:21:00,
2013-02-25 18:32:00,38.0,32.0,29.89,ESE,105,7.0,17.0,79,65.48,,,-99.99,,2013-02-26 00:32:00,
2013-02-25 18:42:00,38.0,32.0,29.89,ESE,105,7.0,17.0,79,65.48,,,-99.99,,2013-02-26 00:42:00,
2013-02-25 18:51:00,38.0,32.0,29.88,East,98,7.0,17.0,79,65.48,,,-99.99,,2013-02-26 00:51:00,
2013-02-25 19:02:00,37.0,31.0,29.87,East,94,6.0,15.0,79,65.48,,,-99.99,,2013-02-26 01:02:00,
2013-02-25 19:11:00,37.0,31.0,29.87,East,94,6.0,15.0,79,65.48,,,-99.99,,2013-02-26 01:11:00,
2013-02-25 19:21:00,37.0,31.0,29.87,East,98,6.0,16.0,79,65.48,,,-99.99,,2013-02-26 01:21:00,
2013-02-25 19:31:00,37.0,32.0,29.88,East,89,6.0,13.0,82,65.48,,,-99.99,,2013-02-26 01:31:00,
2013-02-25 19:41:00,37.0,32.0,29.88,East,89,6.0,13.0,82,65.48,,,-99.99,,2013-02-26 01:41:00,
2013-02-25 19:51:00,36.0,31.0,29.88,East,98,6.0,12.0,82,65.48,,,-99.99,,2013-02-26 01:51:00,
2013-02-25 20:01:00,36.0,31.0,29.88,East,98,6.0,13.0,83,65.48,,,-99.99,,2013-02-26 02:01:00,
2013-02-25 20:11:00,36.0,31.0,29.88,East,98,6.0,13.0,83,65.48,,,-99.99,,2013-02-26 02:11:00,
2013-02-25 20:21:00,36.0,32.0,29.88,East,97,7.0,16.0,84,65.48,,,-99.99,,2013-02-26 02:21:00,
2013-02-25 20:32:00,36.0,32.0,29.89,ENE,65,7.0,15.0,84,65.48,,,-99.99,,2013-02-26 02:32:00,
2013-02-25 20:42:00,36.0,32.0,29.89,ENE,65,7.0,15.0,84,65.48,,,-99.99,,2013-02-26 02:42:00,
2013-02-25 20:52:00,36.0,32.0,29.88,East,83,6.0,15.0,84,65.48,,,-99.99,,2013-02-26 02:52:00,
2013-02-25 21:01:00,36.0,31.0,29.88,East,90,5.0,11.0,83,65.48,,,-99.99,,2013-02-26 03:01:00,
2013-02-25 21:11:00,36.0,31.0,29.88,East,90,5.0,11.0,83,65.48,,,-99.99,,2013-02-26 03:11:00,
2013-02-25 21:21:00,36.0,31.0,29.86,ESE,105,5.0,13.0,83,65.48,,,-99.99,,2013-02-26 03:21:00,
2013-02-25 21:32:00,36.0,31.0,29.85,East,93,8.0,18.0,82,65.48,,,-99.99,,2013-02-26 03:32:00,
2013-02-25 21:41:00,36.0,31.0,29.85,East,93,8.0,18.0,82,65.48,,,-99.99,,2013-02-26 03:41:00,
2013-02-25 21:52:00,36.0,31.0,29.84,ESE,110,6.0,15.0,83,65.48,,,-99.99,,2013-02-26 03:52:00,
2013-02-25 22:01:00,36.0,32.0,29.84,East,93,6.0,17.0,84,65.48,,,-99.99,,2013-02-26 04:01:00,
2013-02-25 22:11:00,36.0,32.0,29.84,East,93,6.0,17.0,84,65.48,,,-99.99,,2013-02-26 04:11:00,
2013-02-25 22:21:00,35.0,31.0,29.83,East,101,6.0,13.0,85,65.48,,,-99.99,,2013-02-26 04:21:00,
2013-02-25 22:32:00,36.0,32.0,29.82,ENE,65,7.0,17.0,85,65.48,,,-99.99,,2013-02-26 04:32:00,
2013-02-25 22:42:00,36.0,32.0,29.82,ENE,65,7.0,17.0,85,65.48,,,-99.99,,2013-02-26 04:42:00,
2013-02-25 22:52:00,36.0,32.0,29.81,SSE,149,6.0,11.0,85,65.48,,,-99.99,,2013-02-26 04:52:00,
2013-02-25 23:01:00,35.0,31.0,29.79,East,90,6.0,12.0,84,65.48,,,-99.99,,2013-02-26 05:01:00,
2013-02-25 23:11:00,35.0,31.0,29.77,ESE,105,9.0,17.0,84,65.48,,,-99.99,,2013-02-26 05:11:00,
2013-02-25 23:21:00,35.0,31.0,29.77,ESE,105,9.0,17.0,84,65.48,,,-99.99,,2013-02-26 05:21:00,
2013-02-25 23:31:00,36.0,31.0,29.77,East,96,6.0,14.0,83,65.48,,,-99.99,,2013-02-26 05:31:00,
2013-02-25 23:42:00,36.0,31.0,29.77,East,96,6.0,14.0,83,65.48,,,-99.99,,2013-02-26 05:42:00,
2013-02-25 23:52:00,36.0,31.0,29.76,ENE,69,7.0,19.0,83,65.48,,,-99.99,,2013-02-26 05:52:00,